sensor_id;sensor_type;location;lat;lon;timestamp;P1;durP1;ratioP1;P2;durP2;ratioP2
20986;SDS011;10652;50.306;8.570;2022-08-21T00:02:18;10.00;;;4.60;;
20986;SDS011;10652;50.306;8.570;2022-08-21T00:06:22;6.53;;;4.60;;
20986;SDS011;10652;50.306;8.570;2022-08-21T00:10:25;7.78;;;4.60;;
20986;SDS011;10652;50.306;8.570;2022-08-21T00:14:28;6.75;;;4.10;;
20986;SDS011;10652;50.306;8.570;2022-08-21T00:18:33;6.97;;;3.83;;
20986;SDS011;10652;50.306;8.570;2022-08-21T00:22:35;8.45;;;4.20;;
20986;SDS011;10652;50.306;8.570;2022-08-21T00:26:38;6.68;;;3.90;;
20986;SDS011;10652;50.306;8.570;2022-08-21T00:30:41;6.57;;;3.88;;
20986;SDS011;10652;50.306;8.570;2022-08-21T00:34:44;5.68;;;3.58;;
20986;SDS011;10652;50.306;8.570;2022-08-21T00:38:46;6.28;;;3.90;;
20986;SDS011;10652;50.306;8.570;2022-08-21T00:42:48;6.95;;;4.28;;
20986;SDS011;10652;50.306;8.570;2022-08-21T00:46:54;7.15;;;4.60;;
20986;SDS011;10652;50.306;8.570;2022-08-21T00:50:58;5.90;;;4.10;;
20986;SDS011;10652;50.306;8.570;2022-08-21T00:55:05;5.75;;;4.20;;
20986;SDS011;10652;50.306;8.570;2022-08-21T00:59:10;9.37;;;4.63;;
20986;SDS011;10652;50.306;8.570;2022-08-21T01:03:13;8.93;;;5.00;;
20986;SDS011;10652;50.306;8.570;2022-08-21T01:07:17;9.93;;;4.30;;
20986;SDS011;10652;50.306;8.570;2022-08-21T01:11:20;6.80;;;4.50;;
20986;SDS011;10652;50.306;8.570;2022-08-21T01:15:23;7.07;;;4.30;;
20986;SDS011;10652;50.306;8.570;2022-08-21T01:19:29;6.43;;;4.03;;
20986;SDS011;10652;50.306;8.570;2022-08-21T01:23:31;7.20;;;4.30;;
20986;SDS011;10652;50.306;8.570;2022-08-21T01:27:35;6.28;;;3.80;;
20986;SDS011;10652;50.306;8.570;2022-08-21T01:31:38;7.47;;;4.53;;
20986;SDS011;10652;50.306;8.570;2022-08-21T01:35:40;6.35;;;3.80;;
20986;SDS011;10652;50.306;8.570;2022-08-21T01:39:42;6.68;;;4.47;;
20986;SDS011;10652;50.306;8.570;2022-08-21T01:43:45;5.90;;;4.32;;
20986;SDS011;10652;50.306;8.570;2022-08-21T01:47:47;5.88;;;4.47;;
20986;SDS011;10652;50.306;8.570;2022-08-21T01:51:49;7.47;;;4.10;;
20986;SDS011;10652;50.306;8.570;2022-08-21T01:55:52;7.18;;;4.35;;
20986;SDS011;10652;50.306;8.570;2022-08-21T01:59:54;6.57;;;4.60;;
20986;SDS011;10652;50.306;8.570;2022-08-21T02:03:56;8.88;;;5.10;;
20986;SDS011;10652;50.306;8.570;2022-08-21T02:07:58;7.80;;;5.05;;
20986;SDS011;10652;50.306;8.570;2022-08-21T02:12:01;7.88;;;5.63;;
20986;SDS011;10652;50.306;8.570;2022-08-21T02:16:03;9.77;;;5.43;;
20986;SDS011;10652;50.306;8.570;2022-08-21T02:20:06;9.45;;;5.68;;
20986;SDS011;10652;50.306;8.570;2022-08-21T02:24:08;8.32;;;5.30;;
20986;SDS011;10652;50.306;8.570;2022-08-21T02:28:13;6.47;;;5.10;;
20986;SDS011;10652;50.306;8.570;2022-08-21T02:32:16;6.82;;;4.57;;
20986;SDS011;10652;50.306;8.570;2022-08-21T02:36:18;7.78;;;5.30;;
20986;SDS011;10652;50.306;8.570;2022-08-21T02:40:22;7.65;;;4.82;;
20986;SDS011;10652;50.306;8.570;2022-08-21T02:44:25;6.15;;;4.93;;
20986;SDS011;10652;50.306;8.570;2022-08-21T02:48:35;7.35;;;4.80;;
20986;SDS011;10652;50.306;8.570;2022-08-21T02:52:38;7.32;;;4.95;;
20986;SDS011;10652;50.306;8.570;2022-08-21T02:56:40;6.05;;;4.72;;
20986;SDS011;10652;50.306;8.570;2022-08-21T03:00:42;9.65;;;5.20;;
20986;SDS011;10652;50.306;8.570;2022-08-21T03:04:45;7.65;;;5.25;;
20986;SDS011;10652;50.306;8.570;2022-08-21T03:08:49;9.60;;;5.90;;
20986;SDS011;10652;50.306;8.570;2022-08-21T03:12:51;6.88;;;5.43;;
20986;SDS011;10652;50.306;8.570;2022-08-21T03:16:53;7.97;;;5.75;;
20986;SDS011;10652;50.306;8.570;2022-08-21T03:20:55;8.93;;;5.75;;
20986;SDS011;10652;50.306;8.570;2022-08-21T03:24:58;7.15;;;5.55;;
20986;SDS011;10652;50.306;8.570;2022-08-21T03:29:01;6.68;;;5.88;;
20986;SDS011;10652;50.306;8.570;2022-08-21T03:33:03;8.48;;;5.95;;
20986;SDS011;10652;50.306;8.570;2022-08-21T03:37:06;10.10;;;5.68;;
20986;SDS011;10652;50.306;8.570;2022-08-21T03:41:08;8.55;;;5.43;;
20986;SDS011;10652;50.306;8.570;2022-08-21T03:45:11;6.50;;;5.13;;
20986;SDS011;10652;50.306;8.570;2022-08-21T03:49:13;7.43;;;5.30;;
20986;SDS011;10652;50.306;8.570;2022-08-21T03:53:15;6.10;;;4.60;;
20986;SDS011;10652;50.306;8.570;2022-08-21T03:57:18;5.78;;;4.90;;
20986;SDS011;10652;50.306;8.570;2022-08-21T04:01:21;7.38;;;5.32;;
20986;SDS011;10652;50.306;8.570;2022-08-21T04:05:23;6.30;;;5.55;;
20986;SDS011;10652;50.306;8.570;2022-08-21T04:09:31;6.47;;;5.53;;
20986;SDS011;10652;50.306;8.570;2022-08-21T04:13:33;9.07;;;5.80;;
20986;SDS011;10652;50.306;8.570;2022-08-21T04:17:45;9.00;;;5.60;;
20986;SDS011;10652;50.306;8.570;2022-08-21T04:21:47;7.60;;;5.60;;
20986;SDS011;10652;50.306;8.570;2022-08-21T04:25:50;9.05;;;5.25;;
20986;SDS011;10652;50.306;8.570;2022-08-21T04:29:53;7.47;;;5.40;;
20986;SDS011;10652;50.306;8.570;2022-08-21T04:33:55;8.55;;;5.40;;
20986;SDS011;10652;50.306;8.570;2022-08-21T04:37:58;8.55;;;5.50;;
20986;SDS011;10652;50.306;8.570;2022-08-21T04:42:00;5.65;;;5.00;;
20986;SDS011;10652;50.306;8.570;2022-08-21T04:46:02;7.50;;;5.50;;
20986;SDS011;10652;50.306;8.570;2022-08-21T04:50:05;6.10;;;4.78;;
20986;SDS011;10652;50.306;8.570;2022-08-21T04:54:14;8.35;;;5.22;;
20986;SDS011;10652;50.306;8.570;2022-08-21T04:58:20;6.90;;;4.75;;
20986;SDS011;10652;50.306;8.570;2022-08-21T05:02:27;5.47;;;4.93;;
20986;SDS011;10652;50.306;8.570;2022-08-21T05:06:29;7.50;;;4.82;;
20986;SDS011;10652;50.306;8.570;2022-08-21T05:10:35;7.30;;;5.40;;
20986;SDS011;10652;50.306;8.570;2022-08-21T05:14:37;9.02;;;5.70;;
20986;SDS011;10652;50.306;8.570;2022-08-21T05:18:40;11.05;;;5.30;;
20986;SDS011;10652;50.306;8.570;2022-08-21T05:22:42;6.80;;;4.72;;
20986;SDS011;10652;50.306;8.570;2022-08-21T05:26:44;7.38;;;4.95;;
20986;SDS011;10652;50.306;8.570;2022-08-21T05:30:48;5.70;;;5.10;;
20986;SDS011;10652;50.306;8.570;2022-08-21T05:34:51;8.13;;;4.95;;
20986;SDS011;10652;50.306;8.570;2022-08-21T05:38:53;5.28;;;4.78;;
20986;SDS011;10652;50.306;8.570;2022-08-21T05:42:55;7.75;;;4.82;;
20986;SDS011;10652;50.306;8.570;2022-08-21T05:47:05;5.60;;;4.35;;
20986;SDS011;10652;50.306;8.570;2022-08-21T05:51:10;7.45;;;5.10;;
20986;SDS011;10652;50.306;8.570;2022-08-21T05:55:15;6.38;;;4.38;;
20986;SDS011;10652;50.306;8.570;2022-08-21T05:59:17;5.93;;;4.47;;
20986;SDS011;10652;50.306;8.570;2022-08-21T06:03:21;8.02;;;4.25;;
20986;SDS011;10652;50.306;8.570;2022-08-21T06:07:26;5.20;;;4.00;;
20986;SDS011;10652;50.306;8.570;2022-08-21T06:11:28;4.28;;;3.70;;
20986;SDS011;10652;50.306;8.570;2022-08-21T06:15:30;4.97;;;3.97;;
20986;SDS011;10652;50.306;8.570;2022-08-21T06:19:32;6.68;;;4.30;;
20986;SDS011;10652;50.306;8.570;2022-08-21T06:23:35;5.25;;;4.00;;
20986;SDS011;10652;50.306;8.570;2022-08-21T06:27:37;4.75;;;4.10;;
20986;SDS011;10652;50.306;8.570;2022-08-21T06:31:39;6.13;;;3.97;;
20986;SDS011;10652;50.306;8.570;2022-08-21T06:35:42;6.30;;;4.03;;
20986;SDS011;10652;50.306;8.570;2022-08-21T06:39:44;6.93;;;4.18;;
20986;SDS011;10652;50.306;8.570;2022-08-21T06:43:46;7.50;;;4.18;;
20986;SDS011;10652;50.306;8.570;2022-08-21T06:47:48;5.20;;;3.75;;
20986;SDS011;10652;50.306;8.570;2022-08-21T06:51:51;7.00;;;3.70;;
20986;SDS011;10652;50.306;8.570;2022-08-21T06:55:53;6.75;;;3.83;;
20986;SDS011;10652;50.306;8.570;2022-08-21T06:59:55;5.95;;;3.97;;
20986;SDS011;10652;50.306;8.570;2022-08-21T07:03:57;6.97;;;4.00;;
20986;SDS011;10652;50.306;8.570;2022-08-21T07:08:00;8.70;;;4.07;;
20986;SDS011;10652;50.306;8.570;2022-08-21T07:12:02;7.40;;;4.30;;
20986;SDS011;10652;50.306;8.570;2022-08-21T07:16:05;8.07;;;4.55;;
20986;SDS011;10652;50.306;8.570;2022-08-21T07:20:07;8.13;;;3.88;;
20986;SDS011;10652;50.306;8.570;2022-08-21T07:24:09;9.52;;;4.13;;
20986;SDS011;10652;50.306;8.570;2022-08-21T07:28:12;9.20;;;4.18;;
20986;SDS011;10652;50.306;8.570;2022-08-21T07:32:14;4.50;;;2.70;;
20986;SDS011;10652;50.306;8.570;2022-08-21T07:36:22;8.05;;;4.40;;
20986;SDS011;10652;50.306;8.570;2022-08-21T07:40:24;7.40;;;4.28;;
20986;SDS011;10652;50.306;8.570;2022-08-21T07:44:27;6.85;;;4.05;;
20986;SDS011;10652;50.306;8.570;2022-08-21T07:48:29;8.63;;;4.50;;
20986;SDS011;10652;50.306;8.570;2022-08-21T07:52:31;6.35;;;4.22;;
20986;SDS011;10652;50.306;8.570;2022-08-21T07:56:34;9.40;;;4.70;;
20986;SDS011;10652;50.306;8.570;2022-08-21T08:00:36;9.50;;;4.22;;
20986;SDS011;10652;50.306;8.570;2022-08-21T08:04:38;9.07;;;4.38;;
20986;SDS011;10652;50.306;8.570;2022-08-21T08:08:51;9.77;;;3.95;;
20986;SDS011;10652;50.306;8.570;2022-08-21T08:12:53;7.85;;;3.95;;
20986;SDS011;10652;50.306;8.570;2022-08-21T08:16:56;8.82;;;3.75;;
20986;SDS011;10652;50.306;8.570;2022-08-21T08:20:58;9.15;;;2.97;;
20986;SDS011;10652;50.306;8.570;2022-08-21T08:25:01;7.07;;;1.92;;
20986;SDS011;10652;50.306;8.570;2022-08-21T08:29:09;5.65;;;2.58;;
20986;SDS011;10652;50.306;8.570;2022-08-21T08:33:12;7.80;;;2.70;;
20986;SDS011;10652;50.306;8.570;2022-08-21T08:37:15;7.57;;;2.90;;
20986;SDS011;10652;50.306;8.570;2022-08-21T08:41:19;8.45;;;2.70;;
20986;SDS011;10652;50.306;8.570;2022-08-21T08:45:24;8.65;;;2.78;;
20986;SDS011;10652;50.306;8.570;2022-08-21T08:49:34;5.72;;;2.70;;
20986;SDS011;10652;50.306;8.570;2022-08-21T08:53:45;10.00;;;3.03;;
20986;SDS011;10652;50.306;8.570;2022-08-21T08:57:51;6.78;;;2.88;;
20986;SDS011;10652;50.306;8.570;2022-08-21T09:01:54;5.78;;;2.70;;
20986;SDS011;10652;50.306;8.570;2022-08-21T09:10:17;7.13;;;2.70;;
20986;SDS011;10652;50.306;8.570;2022-08-21T09:15:03;7.38;;;2.70;;
20986;SDS011;10652;50.306;8.570;2022-08-21T09:18:54;7.65;;;2.60;;
20986;SDS011;10652;50.306;8.570;2022-08-21T09:27:25;5.55;;;2.72;;
20986;SDS011;10652;50.306;8.570;2022-08-21T09:31:29;8.48;;;3.15;;
20986;SDS011;10652;50.306;8.570;2022-08-21T09:35:34;5.88;;;2.30;;
20986;SDS011;10652;50.306;8.570;2022-08-21T09:39:39;7.45;;;2.50;;
20986;SDS011;10652;50.306;8.570;2022-08-21T09:43:52;6.70;;;2.67;;
20986;SDS011;10652;50.306;8.570;2022-08-21T09:47:55;5.97;;;2.50;;
20986;SDS011;10652;50.306;8.570;2022-08-21T09:51:57;9.88;;;2.70;;
20986;SDS011;10652;50.306;8.570;2022-08-21T09:56:05;5.10;;;2.15;;
20986;SDS011;10652;50.306;8.570;2022-08-21T10:00:36;6.85;;;2.33;;
20986;SDS011;10652;50.306;8.570;2022-08-21T10:04:39;6.63;;;2.45;;
20986;SDS011;10652;50.306;8.570;2022-08-21T10:08:43;4.63;;;2.00;;
20986;SDS011;10652;50.306;8.570;2022-08-21T10:43:44;4.85;;;2.05;;
20986;SDS011;10652;50.306;8.570;2022-08-21T10:47:57;3.78;;;1.58;;
20986;SDS011;10652;50.306;8.570;2022-08-21T10:56:36;3.53;;;1.42;;
20986;SDS011;10652;50.306;8.570;2022-08-21T11:04:53;3.70;;;1.35;;
20986;SDS011;10652;50.306;8.570;2022-08-21T11:09:06;3.38;;;1.40;;
20986;SDS011;10652;50.306;8.570;2022-08-21T11:13:32;4.15;;;1.30;;
20986;SDS011;10652;50.306;8.570;2022-08-21T11:17:43;3.40;;;1.38;;
20986;SDS011;10652;50.306;8.570;2022-08-21T11:21:54;3.05;;;1.20;;
20986;SDS011;10652;50.306;8.570;2022-08-21T11:26:04;4.78;;;1.80;;
20986;SDS011;10652;50.306;8.570;2022-08-21T11:30:11;6.70;;;1.65;;
20986;SDS011;10652;50.306;8.570;2022-08-21T11:46:47;5.13;;;1.35;;
20986;SDS011;10652;50.306;8.570;2022-08-21T11:50:55;3.95;;;1.45;;
20986;SDS011;10652;50.306;8.570;2022-08-21T11:59:39;2.85;;;1.20;;
20986;SDS011;10652;50.306;8.570;2022-08-21T12:04:02;3.35;;;1.33;;
20986;SDS011;10652;50.306;8.570;2022-08-21T12:08:15;3.97;;;1.23;;
20986;SDS011;10652;50.306;8.570;2022-08-21T12:12:33;3.78;;;1.20;;
20986;SDS011;10652;50.306;8.570;2022-08-21T12:16:41;5.45;;;1.48;;
20986;SDS011;10652;50.306;8.570;2022-08-21T12:21:02;2.33;;;1.10;;
20986;SDS011;10652;50.306;8.570;2022-08-21T12:25:08;2.17;;;1.15;;
20986;SDS011;10652;50.306;8.570;2022-08-21T12:29:15;2.80;;;1.30;;
20986;SDS011;10652;50.306;8.570;2022-08-21T12:37:37;2.35;;;1.10;;
20986;SDS011;10652;50.306;8.570;2022-08-21T12:41:59;2.65;;;1.00;;
20986;SDS011;10652;50.306;8.570;2022-08-21T12:46:13;1.83;;;1.13;;
20986;SDS011;10652;50.306;8.570;2022-08-21T12:54:40;4.70;;;1.45;;
20986;SDS011;10652;50.306;8.570;2022-08-21T12:58:44;2.38;;;1.20;;
20986;SDS011;10652;50.306;8.570;2022-08-21T13:02:49;4.75;;;1.10;;
20986;SDS011;10652;50.306;8.570;2022-08-21T13:06:53;2.20;;;1.10;;
20986;SDS011;10652;50.306;8.570;2022-08-21T13:10:58;2.97;;;1.02;;
20986;SDS011;10652;50.306;8.570;2022-08-21T13:15:14;3.00;;;1.23;;
20986;SDS011;10652;50.306;8.570;2022-08-21T13:19:25;3.80;;;1.30;;
20986;SDS011;10652;50.306;8.570;2022-08-21T13:23:29;5.13;;;1.30;;
20986;SDS011;10652;50.306;8.570;2022-08-21T13:27:31;3.33;;;1.17;;
20986;SDS011;10652;50.306;8.570;2022-08-21T13:31:33;3.03;;;1.48;;
20986;SDS011;10652;50.306;8.570;2022-08-21T13:35:44;4.70;;;1.45;;
20986;SDS011;10652;50.306;8.570;2022-08-21T13:39:50;2.95;;;0.85;;
20986;SDS011;10652;50.306;8.570;2022-08-21T13:44:01;2.97;;;1.10;;
20986;SDS011;10652;50.306;8.570;2022-08-21T13:48:04;3.50;;;1.02;;
20986;SDS011;10652;50.306;8.570;2022-08-21T13:52:22;4.47;;;1.10;;
20986;SDS011;10652;50.306;8.570;2022-08-21T14:00:42;3.03;;;1.10;;
20986;SDS011;10652;50.306;8.570;2022-08-21T14:04:57;1.85;;;0.75;;
20986;SDS011;10652;50.306;8.570;2022-08-21T14:09:07;2.55;;;1.33;;
20986;SDS011;10652;50.306;8.570;2022-08-21T14:13:29;2.55;;;1.10;;
20986;SDS011;10652;50.306;8.570;2022-08-21T14:17:39;1.37;;;0.80;;
20986;SDS011;10652;50.306;8.570;2022-08-21T14:21:43;1.90;;;1.08;;
20986;SDS011;10652;50.306;8.570;2022-08-21T14:25:45;2.08;;;1.08;;
20986;SDS011;10652;50.306;8.570;2022-08-21T14:29:48;1.65;;;0.85;;
20986;SDS011;10652;50.306;8.570;2022-08-21T14:33:50;2.05;;;1.00;;
20986;SDS011;10652;50.306;8.570;2022-08-21T14:37:52;1.90;;;1.00;;
20986;SDS011;10652;50.306;8.570;2022-08-21T14:41:56;3.03;;;1.08;;
20986;SDS011;10652;50.306;8.570;2022-08-21T14:45:59;2.83;;;1.20;;
20986;SDS011;10652;50.306;8.570;2022-08-21T14:50:03;3.25;;;0.90;;
20986;SDS011;10652;50.306;8.570;2022-08-21T14:54:06;2.65;;;1.10;;
20986;SDS011;10652;50.306;8.570;2022-08-21T14:58:08;1.55;;;0.95;;
20986;SDS011;10652;50.306;8.570;2022-08-21T15:02:11;1.90;;;1.00;;
20986;SDS011;10652;50.306;8.570;2022-08-21T15:06:13;2.20;;;1.00;;
20986;SDS011;10652;50.306;8.570;2022-08-21T15:10:19;2.40;;;1.15;;
20986;SDS011;10652;50.306;8.570;2022-08-21T15:14:22;3.00;;;1.00;;
20986;SDS011;10652;50.306;8.570;2022-08-21T15:18:29;1.75;;;0.98;;
20986;SDS011;10652;50.306;8.570;2022-08-21T15:22:32;2.05;;;0.95;;
20986;SDS011;10652;50.306;8.570;2022-08-21T15:26:35;2.40;;;0.88;;
20986;SDS011;10652;50.306;8.570;2022-08-21T15:30:38;2.65;;;1.00;;
20986;SDS011;10652;50.306;8.570;2022-08-21T15:34:41;1.75;;;1.08;;
20986;SDS011;10652;50.306;8.570;2022-08-21T15:38:44;3.08;;;1.15;;
20986;SDS011;10652;50.306;8.570;2022-08-21T15:42:46;2.60;;;0.80;;
20986;SDS011;10652;50.306;8.570;2022-08-21T15:46:49;2.53;;;0.90;;
20986;SDS011;10652;50.306;8.570;2022-08-21T15:50:51;2.17;;;0.90;;
20986;SDS011;10652;50.306;8.570;2022-08-21T15:54:53;1.63;;;1.00;;
20986;SDS011;10652;50.306;8.570;2022-08-21T15:59:06;2.97;;;0.90;;
20986;SDS011;10652;50.306;8.570;2022-08-21T16:03:16;4.10;;;0.93;;
20986;SDS011;10652;50.306;8.570;2022-08-21T16:07:21;2.22;;;0.80;;
20986;SDS011;10652;50.306;8.570;2022-08-21T16:11:23;1.70;;;0.80;;
20986;SDS011;10652;50.306;8.570;2022-08-21T16:15:26;3.05;;;1.05;;
20986;SDS011;10652;50.306;8.570;2022-08-21T16:19:28;1.70;;;0.90;;
20986;SDS011;10652;50.306;8.570;2022-08-21T16:23:30;2.58;;;1.00;;
20986;SDS011;10652;50.306;8.570;2022-08-21T16:27:33;1.67;;;0.80;;
20986;SDS011;10652;50.306;8.570;2022-08-21T16:31:38;1.45;;;0.90;;
20986;SDS011;10652;50.306;8.570;2022-08-21T16:35:40;3.63;;;0.73;;
20986;SDS011;10652;50.306;8.570;2022-08-21T16:39:43;1.10;;;0.70;;
20986;SDS011;10652;50.306;8.570;2022-08-21T16:43:45;1.60;;;0.70;;
20986;SDS011;10652;50.306;8.570;2022-08-21T16:47:49;2.28;;;0.90;;
20986;SDS011;10652;50.306;8.570;2022-08-21T16:51:52;2.22;;;0.90;;
20986;SDS011;10652;50.306;8.570;2022-08-21T16:55:54;1.52;;;1.02;;
20986;SDS011;10652;50.306;8.570;2022-08-21T16:59:56;2.28;;;0.93;;
20986;SDS011;10652;50.306;8.570;2022-08-21T17:03:58;1.92;;;0.90;;
20986;SDS011;10652;50.306;8.570;2022-08-21T17:08:01;2.45;;;0.80;;
20986;SDS011;10652;50.306;8.570;2022-08-21T17:12:03;2.90;;;1.08;;
20986;SDS011;10652;50.306;8.570;2022-08-21T17:16:06;2.63;;;0.90;;
20986;SDS011;10652;50.306;8.570;2022-08-21T17:20:08;2.75;;;1.02;;
20986;SDS011;10652;50.306;8.570;2022-08-21T17:24:11;2.13;;;0.80;;
20986;SDS011;10652;50.306;8.570;2022-08-21T17:28:19;1.40;;;0.93;;
20986;SDS011;10652;50.306;8.570;2022-08-21T17:32:24;2.35;;;1.10;;
20986;SDS011;10652;50.306;8.570;2022-08-21T17:36:27;4.18;;;1.20;;
20986;SDS011;10652;50.306;8.570;2022-08-21T17:40:30;4.53;;;1.42;;
20986;SDS011;10652;50.306;8.570;2022-08-21T17:44:38;2.97;;;1.20;;
20986;SDS011;10652;50.306;8.570;2022-08-21T17:48:42;3.97;;;0.82;;
20986;SDS011;10652;50.306;8.570;2022-08-21T17:52:48;2.70;;;1.13;;
20986;SDS011;10652;50.306;8.570;2022-08-21T17:56:50;2.95;;;1.17;;
20986;SDS011;10652;50.306;8.570;2022-08-21T18:00:53;1.80;;;0.98;;
20986;SDS011;10652;50.306;8.570;2022-08-21T18:04:56;2.97;;;1.02;;
20986;SDS011;10652;50.306;8.570;2022-08-21T18:08:59;3.58;;;1.10;;
20986;SDS011;10652;50.306;8.570;2022-08-21T18:13:02;3.08;;;0.95;;
20986;SDS011;10652;50.306;8.570;2022-08-21T18:17:11;1.40;;;0.75;;
20986;SDS011;10652;50.306;8.570;2022-08-21T18:21:19;4.68;;;1.10;;
20986;SDS011;10652;50.306;8.570;2022-08-21T18:25:21;2.78;;;1.10;;
20986;SDS011;10652;50.306;8.570;2022-08-21T18:29:24;1.38;;;1.00;;
20986;SDS011;10652;50.306;8.570;2022-08-21T18:33:26;2.17;;;1.10;;
20986;SDS011;10652;50.306;8.570;2022-08-21T18:37:28;2.63;;;1.60;;
20986;SDS011;10652;50.306;8.570;2022-08-21T18:41:30;4.30;;;1.17;;
20986;SDS011;10652;50.306;8.570;2022-08-21T18:45:32;2.05;;;1.30;;
20986;SDS011;10652;50.306;8.570;2022-08-21T18:49:37;3.60;;;1.52;;
20986;SDS011;10652;50.306;8.570;2022-08-21T18:53:41;2.08;;;1.20;;
20986;SDS011;10652;50.306;8.570;2022-08-21T18:57:47;2.50;;;1.05;;
20986;SDS011;10652;50.306;8.570;2022-08-21T19:01:49;4.00;;;1.10;;
20986;SDS011;10652;50.306;8.570;2022-08-21T19:05:52;2.85;;;1.00;;
20986;SDS011;10652;50.306;8.570;2022-08-21T19:09:54;3.55;;;1.27;;
20986;SDS011;10652;50.306;8.570;2022-08-21T19:14:16;2.75;;;0.90;;
20986;SDS011;10652;50.306;8.570;2022-08-21T19:18:20;2.80;;;1.10;;
20986;SDS011;10652;50.306;8.570;2022-08-21T19:22:29;2.75;;;1.10;;
20986;SDS011;10652;50.306;8.570;2022-08-21T19:26:31;2.45;;;1.15;;
20986;SDS011;10652;50.306;8.570;2022-08-21T19:30:36;1.75;;;0.90;;
20986;SDS011;10652;50.306;8.570;2022-08-21T19:34:41;2.50;;;1.05;;
20986;SDS011;10652;50.306;8.570;2022-08-21T19:38:43;2.40;;;1.08;;
20986;SDS011;10652;50.306;8.570;2022-08-21T19:42:45;2.88;;;1.23;;
20986;SDS011;10652;50.306;8.570;2022-08-21T19:46:48;1.75;;;1.08;;
20986;SDS011;10652;50.306;8.570;2022-08-21T19:50:52;4.28;;;1.67;;
20986;SDS011;10652;50.306;8.570;2022-08-21T19:54:54;1.58;;;0.88;;
20986;SDS011;10652;50.306;8.570;2022-08-21T19:58:57;3.17;;;1.20;;
20986;SDS011;10652;50.306;8.570;2022-08-21T20:02:59;1.88;;;1.10;;
20986;SDS011;10652;50.306;8.570;2022-08-21T20:07:02;4.38;;;1.35;;
20986;SDS011;10652;50.306;8.570;2022-08-21T20:11:09;3.20;;;1.10;;
20986;SDS011;10652;50.306;8.570;2022-08-21T20:15:15;2.95;;;1.20;;
20986;SDS011;10652;50.306;8.570;2022-08-21T20:19:22;1.77;;;1.00;;
20986;SDS011;10652;50.306;8.570;2022-08-21T20:23:24;3.58;;;1.52;;
20986;SDS011;10652;50.306;8.570;2022-08-21T20:27:31;2.05;;;1.20;;
20986;SDS011;10652;50.306;8.570;2022-08-21T20:31:41;2.30;;;1.25;;
20986;SDS011;10652;50.306;8.570;2022-08-21T20:35:43;2.90;;;1.40;;
20986;SDS011;10652;50.306;8.570;2022-08-21T20:39:49;3.22;;;1.30;;
20986;SDS011;10652;50.306;8.570;2022-08-21T20:43:51;2.50;;;1.20;;
20986;SDS011;10652;50.306;8.570;2022-08-21T20:47:59;4.20;;;1.60;;
20986;SDS011;10652;50.306;8.570;2022-08-21T20:52:05;2.83;;;1.20;;
20986;SDS011;10652;50.306;8.570;2022-08-21T20:56:14;2.00;;;1.00;;
20986;SDS011;10652;50.306;8.570;2022-08-21T21:00:39;3.00;;;1.20;;
20986;SDS011;10652;50.306;8.570;2022-08-21T21:09:06;2.25;;;0.85;;
20986;SDS011;10652;50.306;8.570;2022-08-21T21:13:16;4.72;;;1.20;;
20986;SDS011;10652;50.306;8.570;2022-08-21T21:17:32;3.00;;;0.82;;
20986;SDS011;10652;50.306;8.570;2022-08-21T21:21:47;1.45;;;0.65;;
20986;SDS011;10652;50.306;8.570;2022-08-21T21:25:59;3.45;;;0.90;;
20986;SDS011;10652;50.306;8.570;2022-08-21T21:30:08;1.65;;;0.73;;
20986;SDS011;10652;50.306;8.570;2022-08-21T21:34:12;2.25;;;0.57;;
20986;SDS011;10652;50.306;8.570;2022-08-21T21:38:31;2.53;;;0.63;;
20986;SDS011;10652;50.306;8.570;2022-08-21T21:43:05;2.60;;;0.88;;
20986;SDS011;10652;50.306;8.570;2022-08-21T21:47:21;1.35;;;0.50;;
20986;SDS011;10652;50.306;8.570;2022-08-21T21:56:02;4.70;;;1.08;;
20986;SDS011;10652;50.306;8.570;2022-08-21T22:00:12;2.05;;;0.95;;
20986;SDS011;10652;50.306;8.570;2022-08-21T22:04:30;1.63;;;0.70;;
20986;SDS011;10652;50.306;8.570;2022-08-21T22:08:54;1.92;;;0.90;;
20986;SDS011;10652;50.306;8.570;2022-08-21T22:17:32;1.67;;;0.80;;
20986;SDS011;10652;50.306;8.570;2022-08-21T22:21:36;2.00;;;0.95;;
20986;SDS011;10652;50.306;8.570;2022-08-21T22:25:45;1.30;;;0.65;;
20986;SDS011;10652;50.306;8.570;2022-08-21T22:29:54;2.40;;;0.70;;
20986;SDS011;10652;50.306;8.570;2022-08-21T22:34:15;2.17;;;0.60;;
20986;SDS011;10652;50.306;8.570;2022-08-21T22:38:39;1.98;;;0.80;;
20986;SDS011;10652;50.306;8.570;2022-08-21T22:42:41;2.08;;;1.00;;
20986;SDS011;10652;50.306;8.570;2022-08-21T22:46:47;1.40;;;0.70;;
20986;SDS011;10652;50.306;8.570;2022-08-21T22:55:14;2.17;;;0.70;;
20986;SDS011;10652;50.306;8.570;2022-08-21T22:59:24;1.55;;;0.77;;
20986;SDS011;10652;50.306;8.570;2022-08-21T23:07:59;1.33;;;0.90;;
20986;SDS011;10652;50.306;8.570;2022-08-21T23:12:25;1.50;;;0.63;;
20986;SDS011;10652;50.306;8.570;2022-08-21T23:16:39;2.78;;;0.80;;
20986;SDS011;10652;50.306;8.570;2022-08-21T23:21:09;1.60;;;0.68;;
20986;SDS011;10652;50.306;8.570;2022-08-21T23:33:59;1.38;;;0.70;;
20986;SDS011;10652;50.306;8.570;2022-08-21T23:38:10;2.78;;;0.68;;
20986;SDS011;10652;50.306;8.570;2022-08-21T23:51:07;1.98;;;0.80;;
20986;SDS011;10652;50.306;8.570;2022-08-21T23:55:20;1.77;;;0.80;;
20986;SDS011;10652;50.306;8.570;2022-08-21T23:59:45;2.72;;;1.10;;
